sensor_id;sensor_type;location;lat;lon;timestamp;temperature;humidity
52669;DHT22;59898;52.786;6.892;2023-05-29T00:02:20;12.20;99.90
52669;DHT22;59898;52.786;6.892;2023-05-29T00:05:41;12.40;99.90
52669;DHT22;59898;52.786;6.892;2023-05-29T00:09:02;11.90;99.90
52669;DHT22;59898;52.786;6.892;2023-05-29T00:12:22;11.80;99.90
52669;DHT22;59898;52.786;6.892;2023-05-29T00:15:43;11.90;99.90
52669;DHT22;59898;52.786;6.892;2023-05-29T00:19:03;11.80;99.90
52669;DHT22;59898;52.786;6.892;2023-05-29T00:22:24;11.90;99.90
52669;DHT22;59898;52.786;6.892;2023-05-29T00:25:45;11.90;99.90
52669;DHT22;59898;52.786;6.892;2023-05-29T00:29:06;11.90;99.90
52669;DHT22;59898;52.786;6.892;2023-05-29T00:32:27;12.00;99.90
52669;DHT22;59898;52.786;6.892;2023-05-29T00:35:47;11.80;99.90
52669;DHT22;59898;52.786;6.892;2023-05-29T00:39:08;11.90;99.90
52669;DHT22;59898;52.786;6.892;2023-05-29T00:42:29;11.90;99.90
52669;DHT22;59898;52.786;6.892;2023-05-29T00:45:50;11.90;99.90
52669;DHT22;59898;52.786;6.892;2023-05-29T00:49:11;12.00;99.90
52669;DHT22;59898;52.786;6.892;2023-05-29T00:52:32;12.00;99.90
52669;DHT22;59898;52.786;6.892;2023-05-29T00:55:53;12.00;99.90
52669;DHT22;59898;52.786;6.892;2023-05-29T00:59:13;11.90;99.90
52669;DHT22;59898;52.786;6.892;2023-05-29T01:02:36;11.90;99.90
52669;DHT22;59898;52.786;6.892;2023-05-29T01:05:58;11.80;99.90
52669;DHT22;59898;52.786;6.892;2023-05-29T01:09:18;11.80;99.90
52669;DHT22;59898;52.786;6.892;2023-05-29T01:13:06;11.80;99.90
52669;DHT22;59898;52.786;6.892;2023-05-29T01:16:38;11.80;99.90
52669;DHT22;59898;52.786;6.892;2023-05-29T01:27:11;11.70;99.90
52669;DHT22;59898;52.786;6.892;2023-05-29T01:30:32;11.70;99.90
52669;DHT22;59898;52.786;6.892;2023-05-29T01:33:55;11.70;99.90
52669;DHT22;59898;52.786;6.892;2023-05-29T01:37:16;11.70;99.90
52669;DHT22;59898;52.786;6.892;2023-05-29T01:40:36;11.70;99.90
52669;DHT22;59898;52.786;6.892;2023-05-29T01:43:58;11.60;99.90
52669;DHT22;59898;52.786;6.892;2023-05-29T01:47:20;11.50;99.90
52669;DHT22;59898;52.786;6.892;2023-05-29T01:50:41;11.40;99.90
52669;DHT22;59898;52.786;6.892;2023-05-29T01:54:04;11.30;99.90
52669;DHT22;59898;52.786;6.892;2023-05-29T01:57:25;11.20;99.90
52669;DHT22;59898;52.786;6.892;2023-05-29T02:00:47;11.20;99.90
52669;DHT22;59898;52.786;6.892;2023-05-29T02:04:08;11.20;99.90
52669;DHT22;59898;52.786;6.892;2023-05-29T02:07:28;11.10;99.90
52669;DHT22;59898;52.786;6.892;2023-05-29T02:10:49;11.20;99.90
52669;DHT22;59898;52.786;6.892;2023-05-29T02:14:09;11.20;99.90
52669;DHT22;59898;52.786;6.892;2023-05-29T02:17:30;11.20;99.90
52669;DHT22;59898;52.786;6.892;2023-05-29T02:20:51;11.10;99.90
52669;DHT22;59898;52.786;6.892;2023-05-29T02:24:11;11.20;99.90
52669;DHT22;59898;52.786;6.892;2023-05-29T02:27:32;11.10;99.90
52669;DHT22;59898;52.786;6.892;2023-05-29T02:30:53;11.10;99.90
52669;DHT22;59898;52.786;6.892;2023-05-29T02:34:13;11.10;99.90
52669;DHT22;59898;52.786;6.892;2023-05-29T02:37:34;11.10;99.90
52669;DHT22;59898;52.786;6.892;2023-05-29T02:40:54;11.10;99.90
52669;DHT22;59898;52.786;6.892;2023-05-29T02:44:15;11.10;99.90
52669;DHT22;59898;52.786;6.892;2023-05-29T02:47:36;11.10;99.90
52669;DHT22;59898;52.786;6.892;2023-05-29T02:50:57;11.00;99.90
52669;DHT22;59898;52.786;6.892;2023-05-29T02:54:17;11.00;99.90
52669;DHT22;59898;52.786;6.892;2023-05-29T02:57:38;11.00;99.90
52669;DHT22;59898;52.786;6.892;2023-05-29T03:00:58;11.00;99.90
52669;DHT22;59898;52.786;6.892;2023-05-29T03:04:20;10.90;99.90
52669;DHT22;59898;52.786;6.892;2023-05-29T03:07:41;10.90;99.90
52669;DHT22;59898;52.786;6.892;2023-05-29T03:11:02;10.70;99.90
52669;DHT22;59898;52.786;6.892;2023-05-29T03:14:23;10.70;99.90
52669;DHT22;59898;52.786;6.892;2023-05-29T03:17:44;10.60;99.90
52669;DHT22;59898;52.786;6.892;2023-05-29T03:21:04;10.60;99.90
52669;DHT22;59898;52.786;6.892;2023-05-29T03:24:25;10.70;99.90
52669;DHT22;59898;52.786;6.892;2023-05-29T03:27:45;10.60;99.90
52669;DHT22;59898;52.786;6.892;2023-05-29T03:31:06;10.60;99.90
52669;DHT22;59898;52.786;6.892;2023-05-29T03:34:28;10.60;99.90
52669;DHT22;59898;52.786;6.892;2023-05-29T03:37:48;10.60;99.90
52669;DHT22;59898;52.786;6.892;2023-05-29T03:41:09;10.50;99.90
52669;DHT22;59898;52.786;6.892;2023-05-29T03:44:30;10.40;99.90
52669;DHT22;59898;52.786;6.892;2023-05-29T03:47:50;10.40;99.90
52669;DHT22;59898;52.786;6.892;2023-05-29T03:51:11;10.40;99.90
52669;DHT22;59898;52.786;6.892;2023-05-29T03:54:32;10.40;99.90
52669;DHT22;59898;52.786;6.892;2023-05-29T03:57:53;10.50;99.90
52669;DHT22;59898;52.786;6.892;2023-05-29T04:01:13;10.60;99.90
52669;DHT22;59898;52.786;6.892;2023-05-29T04:04:34;10.60;99.90
52669;DHT22;59898;52.786;6.892;2023-05-29T04:07:56;10.60;99.90
52669;DHT22;59898;52.786;6.892;2023-05-29T04:11:16;10.70;99.90
52669;DHT22;59898;52.786;6.892;2023-05-29T04:14:37;10.80;99.90
52669;DHT22;59898;52.786;6.892;2023-05-29T04:17:58;10.80;99.90
52669;DHT22;59898;52.786;6.892;2023-05-29T04:21:18;10.90;99.90
52669;DHT22;59898;52.786;6.892;2023-05-29T04:24:39;10.90;99.90
52669;DHT22;59898;52.786;6.892;2023-05-29T04:28:00;10.90;99.90
52669;DHT22;59898;52.786;6.892;2023-05-29T04:31:24;10.90;99.90
52669;DHT22;59898;52.786;6.892;2023-05-29T04:34:45;10.90;99.90
52669;DHT22;59898;52.786;6.892;2023-05-29T04:38:06;11.00;99.90
52669;DHT22;59898;52.786;6.892;2023-05-29T04:41:27;11.00;99.90
52669;DHT22;59898;52.786;6.892;2023-05-29T04:44:51;11.00;99.90
52669;DHT22;59898;52.786;6.892;2023-05-29T04:48:15;11.10;99.90
52669;DHT22;59898;52.786;6.892;2023-05-29T04:51:36;11.20;99.90
52669;DHT22;59898;52.786;6.892;2023-05-29T04:55:00;11.20;99.90
52669;DHT22;59898;52.786;6.892;2023-05-29T04:58:21;11.30;99.90
52669;DHT22;59898;52.786;6.892;2023-05-29T05:01:44;11.40;99.90
52669;DHT22;59898;52.786;6.892;2023-05-29T05:05:05;11.50;99.90
52669;DHT22;59898;52.786;6.892;2023-05-29T05:08:26;11.50;99.90
52669;DHT22;59898;52.786;6.892;2023-05-29T05:11:47;11.60;99.90
52669;DHT22;59898;52.786;6.892;2023-05-29T05:15:08;11.60;99.90
52669;DHT22;59898;52.786;6.892;2023-05-29T05:18:29;11.60;99.90
52669;DHT22;59898;52.786;6.892;2023-05-29T05:21:49;11.70;99.90
52669;DHT22;59898;52.786;6.892;2023-05-29T05:25:10;11.70;99.90
52669;DHT22;59898;52.786;6.892;2023-05-29T05:28:31;11.70;99.90
52669;DHT22;59898;52.786;6.892;2023-05-29T05:31:54;11.80;99.90
52669;DHT22;59898;52.786;6.892;2023-05-29T05:35:14;11.80;99.90
52669;DHT22;59898;52.786;6.892;2023-05-29T05:38:36;11.90;99.90
52669;DHT22;59898;52.786;6.892;2023-05-29T05:41:56;12.00;99.90
52669;DHT22;59898;52.786;6.892;2023-05-29T05:45:17;12.00;99.90
52669;DHT22;59898;52.786;6.892;2023-05-29T05:48:39;12.10;99.90
52669;DHT22;59898;52.786;6.892;2023-05-29T05:52:00;12.10;99.90
52669;DHT22;59898;52.786;6.892;2023-05-29T05:55:20;12.20;99.90
52669;DHT22;59898;52.786;6.892;2023-05-29T05:58:41;12.20;99.90
52669;DHT22;59898;52.786;6.892;2023-05-29T06:02:02;12.30;99.90
52669;DHT22;59898;52.786;6.892;2023-05-29T06:05:23;12.40;99.90
52669;DHT22;59898;52.786;6.892;2023-05-29T06:08:44;12.60;99.90
52669;DHT22;59898;52.786;6.892;2023-05-29T06:12:06;12.90;99.90
52669;DHT22;59898;52.786;6.892;2023-05-29T06:15:28;13.00;99.90
52669;DHT22;59898;52.786;6.892;2023-05-29T06:18:48;13.10;99.90
52669;DHT22;59898;52.786;6.892;2023-05-29T06:22:09;13.10;99.90
52669;DHT22;59898;52.786;6.892;2023-05-29T06:25:30;13.00;99.90
52669;DHT22;59898;52.786;6.892;2023-05-29T06:28:53;12.90;99.90
52669;DHT22;59898;52.786;6.892;2023-05-29T06:32:14;12.80;99.90
52669;DHT22;59898;52.786;6.892;2023-05-29T06:35:35;12.80;99.90
52669;DHT22;59898;52.786;6.892;2023-05-29T06:38:55;12.90;99.90
52669;DHT22;59898;52.786;6.892;2023-05-29T06:42:16;12.90;99.90
52669;DHT22;59898;52.786;6.892;2023-05-29T06:45:37;13.00;99.90
52669;DHT22;59898;52.786;6.892;2023-05-29T06:48:58;13.20;99.90
52669;DHT22;59898;52.786;6.892;2023-05-29T06:52:18;13.20;99.90
52669;DHT22;59898;52.786;6.892;2023-05-29T06:55:39;13.20;99.90
52669;DHT22;59898;52.786;6.892;2023-05-29T06:59:03;13.40;99.90
52669;DHT22;59898;52.786;6.892;2023-05-29T07:02:23;13.50;99.90
52669;DHT22;59898;52.786;6.892;2023-05-29T07:05:44;13.50;99.90
52669;DHT22;59898;52.786;6.892;2023-05-29T07:09:04;13.50;99.90
52669;DHT22;59898;52.786;6.892;2023-05-29T07:12:26;13.60;99.90
52669;DHT22;59898;52.786;6.892;2023-05-29T07:15:48;13.70;99.90
52669;DHT22;59898;52.786;6.892;2023-05-29T07:19:09;13.90;99.90
52669;DHT22;59898;52.786;6.892;2023-05-29T07:22:31;14.00;99.90
52669;DHT22;59898;52.786;6.892;2023-05-29T07:25:52;14.10;99.90
52669;DHT22;59898;52.786;6.892;2023-05-29T07:29:12;14.20;99.90
52669;DHT22;59898;52.786;6.892;2023-05-29T07:32:34;14.30;99.90
52669;DHT22;59898;52.786;6.892;2023-05-29T07:35:55;14.40;99.90
52669;DHT22;59898;52.786;6.892;2023-05-29T07:39:15;14.50;99.90
52669;DHT22;59898;52.786;6.892;2023-05-29T07:42:36;14.60;99.90
52669;DHT22;59898;52.786;6.892;2023-05-29T07:45:56;14.60;99.90
52669;DHT22;59898;52.786;6.892;2023-05-29T07:49:17;14.60;99.90
52669;DHT22;59898;52.786;6.892;2023-05-29T07:52:37;14.60;99.90
52669;DHT22;59898;52.786;6.892;2023-05-29T07:55:58;14.60;99.90
52669;DHT22;59898;52.786;6.892;2023-05-29T07:59:18;14.60;99.90
52669;DHT22;59898;52.786;6.892;2023-05-29T08:02:39;14.70;99.90
52669;DHT22;59898;52.786;6.892;2023-05-29T08:06:00;14.60;99.90
52669;DHT22;59898;52.786;6.892;2023-05-29T08:09:20;14.70;99.90
52669;DHT22;59898;52.786;6.892;2023-05-29T08:12:41;14.90;99.90
52669;DHT22;59898;52.786;6.892;2023-05-29T08:16:02;15.20;99.90
52669;DHT22;59898;52.786;6.892;2023-05-29T08:19:23;15.40;99.90
52669;DHT22;59898;52.786;6.892;2023-05-29T08:22:44;15.60;99.90
52669;DHT22;59898;52.786;6.892;2023-05-29T08:26:05;15.70;99.90
52669;DHT22;59898;52.786;6.892;2023-05-29T08:29:26;15.90;99.90
52669;DHT22;59898;52.786;6.892;2023-05-29T08:32:46;15.90;99.70
52669;DHT22;59898;52.786;6.892;2023-05-29T08:36:07;16.00;99.50
52669;DHT22;59898;52.786;6.892;2023-05-29T08:39:28;16.10;99.30
52669;DHT22;59898;52.786;6.892;2023-05-29T08:43:04;16.30;99.00
52669;DHT22;59898;52.786;6.892;2023-05-29T08:46:27;16.20;98.80
52669;DHT22;59898;52.786;6.892;2023-05-29T08:49:55;16.10;99.10
52669;DHT22;59898;52.786;6.892;2023-05-29T08:53:17;16.20;99.00
52669;DHT22;59898;52.786;6.892;2023-05-29T08:56:39;16.30;98.90
52669;DHT22;59898;52.786;6.892;2023-05-29T09:00:00;16.40;98.90
52669;DHT22;59898;52.786;6.892;2023-05-29T09:03:21;16.60;98.70
52669;DHT22;59898;52.786;6.892;2023-05-29T09:06:42;16.90;98.50
52669;DHT22;59898;52.786;6.892;2023-05-29T09:10:09;17.20;98.40
52669;DHT22;59898;52.786;6.892;2023-05-29T09:13:29;17.30;98.50
52669;DHT22;59898;52.786;6.892;2023-05-29T09:16:50;17.40;98.20
52669;DHT22;59898;52.786;6.892;2023-05-29T09:20:17;17.60;98.10
52669;DHT22;59898;52.786;6.892;2023-05-29T09:23:38;17.80;98.00
52669;DHT22;59898;52.786;6.892;2023-05-29T09:26:59;17.70;97.80
52669;DHT22;59898;52.786;6.892;2023-05-29T09:34:01;17.80;97.40
52669;DHT22;59898;52.786;6.892;2023-05-29T09:37:22;17.90;97.00
52669;DHT22;59898;52.786;6.892;2023-05-29T09:40:43;17.90;96.60
52669;DHT22;59898;52.786;6.892;2023-05-29T09:44:07;17.80;96.50
52669;DHT22;59898;52.786;6.892;2023-05-29T09:47:33;17.80;96.50
52669;DHT22;59898;52.786;6.892;2023-05-29T09:50:54;17.90;96.40
52669;DHT22;59898;52.786;6.892;2023-05-29T09:54:18;17.80;96.50
52669;DHT22;59898;52.786;6.892;2023-05-29T09:57:40;17.70;96.80
52669;DHT22;59898;52.786;6.892;2023-05-29T10:01:01;17.80;96.80
52669;DHT22;59898;52.786;6.892;2023-05-29T10:04:21;18.10;96.50
52669;DHT22;59898;52.786;6.892;2023-05-29T10:07:47;18.20;96.00
52669;DHT22;59898;52.786;6.892;2023-05-29T10:11:11;18.30;95.60
52669;DHT22;59898;52.786;6.892;2023-05-29T10:14:35;18.40;95.40
52669;DHT22;59898;52.786;6.892;2023-05-29T10:18:03;18.30;95.30
52669;DHT22;59898;52.786;6.892;2023-05-29T10:21:26;18.30;95.40
52669;DHT22;59898;52.786;6.892;2023-05-29T10:24:48;18.40;95.50
52669;DHT22;59898;52.786;6.892;2023-05-29T10:28:10;18.60;95.20
52669;DHT22;59898;52.786;6.892;2023-05-29T10:32:11;18.80;94.90
52669;DHT22;59898;52.786;6.892;2023-05-29T10:35:42;19.00;95.30
52669;DHT22;59898;52.786;6.892;2023-05-29T10:39:06;19.20;95.20
52669;DHT22;59898;52.786;6.892;2023-05-29T10:42:48;19.30;95.30
52669;DHT22;59898;52.786;6.892;2023-05-29T10:46:12;19.50;95.20
52669;DHT22;59898;52.786;6.892;2023-05-29T10:49:33;19.60;94.90
52669;DHT22;59898;52.786;6.892;2023-05-29T10:52:54;19.60;94.70
52669;DHT22;59898;52.786;6.892;2023-05-29T10:56:22;19.60;94.40
52669;DHT22;59898;52.786;6.892;2023-05-29T10:59:45;19.60;94.20
52669;DHT22;59898;52.786;6.892;2023-05-29T11:03:07;19.60;94.20
52669;DHT22;59898;52.786;6.892;2023-05-29T11:06:34;19.50;94.10
52669;DHT22;59898;52.786;6.892;2023-05-29T11:10:11;19.70;94.00
52669;DHT22;59898;52.786;6.892;2023-05-29T11:13:35;19.80;94.00
52669;DHT22;59898;52.786;6.892;2023-05-29T11:16:57;19.80;93.70
52669;DHT22;59898;52.786;6.892;2023-05-29T11:20:28;19.70;93.70
52669;DHT22;59898;52.786;6.892;2023-05-29T11:23:58;19.60;93.90
52669;DHT22;59898;52.786;6.892;2023-05-29T11:27:19;19.70;93.80
52669;DHT22;59898;52.786;6.892;2023-05-29T11:34:03;19.80;93.40
52669;DHT22;59898;52.786;6.892;2023-05-29T11:37:26;19.90;93.10
52669;DHT22;59898;52.786;6.892;2023-05-29T11:40:46;19.90;92.70
52669;DHT22;59898;52.786;6.892;2023-05-29T11:44:07;19.90;93.00
52669;DHT22;59898;52.786;6.892;2023-05-29T11:47:28;20.00;93.20
52669;DHT22;59898;52.786;6.892;2023-05-29T11:50:48;20.20;93.10
52669;DHT22;59898;52.786;6.892;2023-05-29T11:54:11;20.30;92.60
52669;DHT22;59898;52.786;6.892;2023-05-29T11:57:33;20.30;92.50
52669;DHT22;59898;52.786;6.892;2023-05-29T12:00:54;20.40;92.30
52669;DHT22;59898;52.786;6.892;2023-05-29T12:04:15;20.40;92.30
52669;DHT22;59898;52.786;6.892;2023-05-29T12:07:36;20.40;92.40
52669;DHT22;59898;52.786;6.892;2023-05-29T12:10:57;20.50;92.60
52669;DHT22;59898;52.786;6.892;2023-05-29T12:14:18;20.50;92.50
52669;DHT22;59898;52.786;6.892;2023-05-29T12:17:38;20.50;92.20
52669;DHT22;59898;52.786;6.892;2023-05-29T12:21:01;20.60;92.00
52669;DHT22;59898;52.786;6.892;2023-05-29T12:24:22;20.70;92.10
52669;DHT22;59898;52.786;6.892;2023-05-29T12:27:44;20.80;92.20
52669;DHT22;59898;52.786;6.892;2023-05-29T12:31:06;20.90;92.20
52669;DHT22;59898;52.786;6.892;2023-05-29T12:34:34;20.80;92.20
52669;DHT22;59898;52.786;6.892;2023-05-29T12:37:57;20.90;92.30
52669;DHT22;59898;52.786;6.892;2023-05-29T12:41:38;20.90;92.20
52669;DHT22;59898;52.786;6.892;2023-05-29T12:45:01;21.00;92.40
52669;DHT22;59898;52.786;6.892;2023-05-29T12:48:27;21.10;92.30
52669;DHT22;59898;52.786;6.892;2023-05-29T12:51:48;21.10;92.20
52669;DHT22;59898;52.786;6.892;2023-05-29T12:55:08;21.20;91.90
52669;DHT22;59898;52.786;6.892;2023-05-29T12:58:29;21.00;91.80
52669;DHT22;59898;52.786;6.892;2023-05-29T13:01:49;21.00;92.00
52669;DHT22;59898;52.786;6.892;2023-05-29T13:05:10;21.00;92.00
52669;DHT22;59898;52.786;6.892;2023-05-29T13:08:31;21.00;91.90
52669;DHT22;59898;52.786;6.892;2023-05-29T13:11:51;21.10;91.90
52669;DHT22;59898;52.786;6.892;2023-05-29T13:15:14;21.20;91.70
52669;DHT22;59898;52.786;6.892;2023-05-29T13:18:34;21.20;91.20
52669;DHT22;59898;52.786;6.892;2023-05-29T13:21:55;21.10;91.20
52669;DHT22;59898;52.786;6.892;2023-05-29T13:25:17;21.00;91.40
52669;DHT22;59898;52.786;6.892;2023-05-29T13:28:37;21.00;91.40
52669;DHT22;59898;52.786;6.892;2023-05-29T13:31:58;21.10;91.30
52669;DHT22;59898;52.786;6.892;2023-05-29T13:35:19;21.20;91.20
52669;DHT22;59898;52.786;6.892;2023-05-29T13:38:40;21.30;90.90
52669;DHT22;59898;52.786;6.892;2023-05-29T13:42:00;21.30;90.80
52669;DHT22;59898;52.786;6.892;2023-05-29T13:45:21;21.30;90.50
52669;DHT22;59898;52.786;6.892;2023-05-29T13:48:41;21.20;90.00
52669;DHT22;59898;52.786;6.892;2023-05-29T13:52:05;21.00;90.40
52669;DHT22;59898;52.786;6.892;2023-05-29T13:55:26;21.00;90.40
52669;DHT22;59898;52.786;6.892;2023-05-29T13:58:46;20.80;90.30
52669;DHT22;59898;52.786;6.892;2023-05-29T14:02:07;20.60;90.40
52669;DHT22;59898;52.786;6.892;2023-05-29T14:05:28;20.40;89.80
52669;DHT22;59898;52.786;6.892;2023-05-29T14:08:49;20.40;89.20
52669;DHT22;59898;52.786;6.892;2023-05-29T14:12:09;20.30;89.50
52669;DHT22;59898;52.786;6.892;2023-05-29T14:15:30;20.40;89.90
52669;DHT22;59898;52.786;6.892;2023-05-29T14:18:51;20.50;89.40
52669;DHT22;59898;52.786;6.892;2023-05-29T14:22:11;20.40;88.70
52669;DHT22;59898;52.786;6.892;2023-05-29T14:25:32;20.40;88.70
52669;DHT22;59898;52.786;6.892;2023-05-29T14:28:52;20.50;88.20
52669;DHT22;59898;52.786;6.892;2023-05-29T14:32:13;20.60;87.80
52669;DHT22;59898;52.786;6.892;2023-05-29T14:35:33;20.70;88.00
52669;DHT22;59898;52.786;6.892;2023-05-29T14:38:54;20.70;87.60
52669;DHT22;59898;52.786;6.892;2023-05-29T14:42:14;20.60;87.40
52669;DHT22;59898;52.786;6.892;2023-05-29T14:45:36;20.60;87.50
52669;DHT22;59898;52.786;6.892;2023-05-29T14:49:00;20.60;87.80
52669;DHT22;59898;52.786;6.892;2023-05-29T14:52:21;20.60;87.70
52669;DHT22;59898;52.786;6.892;2023-05-29T14:55:42;20.60;87.50
52669;DHT22;59898;52.786;6.892;2023-05-29T14:59:02;20.60;88.20
52669;DHT22;59898;52.786;6.892;2023-05-29T15:02:23;20.60;88.30
52669;DHT22;59898;52.786;6.892;2023-05-29T15:05:44;20.70;88.90
52669;DHT22;59898;52.786;6.892;2023-05-29T15:09:04;20.70;88.70
52669;DHT22;59898;52.786;6.892;2023-05-29T15:12:25;20.70;88.80
52669;DHT22;59898;52.786;6.892;2023-05-29T15:15:45;20.60;89.20
52669;DHT22;59898;52.786;6.892;2023-05-29T15:19:06;20.50;89.60
52669;DHT22;59898;52.786;6.892;2023-05-29T15:22:27;20.50;89.70
52669;DHT22;59898;52.786;6.892;2023-05-29T15:25:48;20.50;89.60
52669;DHT22;59898;52.786;6.892;2023-05-29T15:29:09;20.50;89.60
52669;DHT22;59898;52.786;6.892;2023-05-29T15:32:29;20.50;89.40
52669;DHT22;59898;52.786;6.892;2023-05-29T15:35:50;20.40;89.40
52669;DHT22;59898;52.786;6.892;2023-05-29T15:39:10;20.30;89.60
52669;DHT22;59898;52.786;6.892;2023-05-29T15:42:31;20.20;89.90
52669;DHT22;59898;52.786;6.892;2023-05-29T15:45:52;20.30;90.00
52669;DHT22;59898;52.786;6.892;2023-05-29T15:49:12;20.30;89.80
52669;DHT22;59898;52.786;6.892;2023-05-29T15:52:33;20.20;89.20
52669;DHT22;59898;52.786;6.892;2023-05-29T15:55:54;20.10;89.10
52669;DHT22;59898;52.786;6.892;2023-05-29T15:59:14;20.00;89.20
52669;DHT22;59898;52.786;6.892;2023-05-29T16:02:35;20.00;89.20
52669;DHT22;59898;52.786;6.892;2023-05-29T16:05:55;20.00;89.20
52669;DHT22;59898;52.786;6.892;2023-05-29T16:09:16;19.90;88.80
52669;DHT22;59898;52.786;6.892;2023-05-29T16:12:37;19.80;89.00
52669;DHT22;59898;52.786;6.892;2023-05-29T16:15:57;19.70;88.80
52669;DHT22;59898;52.786;6.892;2023-05-29T16:19:18;19.60;88.50
52669;DHT22;59898;52.786;6.892;2023-05-29T16:22:40;19.50;88.50
52669;DHT22;59898;52.786;6.892;2023-05-29T16:26:01;19.60;88.50
52669;DHT22;59898;52.786;6.892;2023-05-29T16:29:21;19.50;88.20
52669;DHT22;59898;52.786;6.892;2023-05-29T16:32:42;19.40;88.20
52669;DHT22;59898;52.786;6.892;2023-05-29T16:36:02;19.40;88.20
52669;DHT22;59898;52.786;6.892;2023-05-29T16:39:23;19.30;88.10
52669;DHT22;59898;52.786;6.892;2023-05-29T16:42:47;19.20;88.00
52669;DHT22;59898;52.786;6.892;2023-05-29T16:46:08;19.10;88.00
52669;DHT22;59898;52.786;6.892;2023-05-29T16:49:28;19.00;88.00
52669;DHT22;59898;52.786;6.892;2023-05-29T16:52:49;19.00;88.20
52669;DHT22;59898;52.786;6.892;2023-05-29T16:56:09;19.00;88.40
52669;DHT22;59898;52.786;6.892;2023-05-29T16:59:30;18.80;88.90
52669;DHT22;59898;52.786;6.892;2023-05-29T17:02:50;18.80;89.30
52669;DHT22;59898;52.786;6.892;2023-05-29T17:06:11;18.70;89.60
52669;DHT22;59898;52.786;6.892;2023-05-29T17:09:32;18.50;89.80
52669;DHT22;59898;52.786;6.892;2023-05-29T17:12:52;18.40;90.00
52669;DHT22;59898;52.786;6.892;2023-05-29T17:16:13;18.40;90.00
52669;DHT22;59898;52.786;6.892;2023-05-29T17:19:34;18.40;90.10
52669;DHT22;59898;52.786;6.892;2023-05-29T17:22:55;18.30;90.10
52669;DHT22;59898;52.786;6.892;2023-05-29T17:26:16;18.20;90.30
52669;DHT22;59898;52.786;6.892;2023-05-29T17:29:36;18.10;90.40
52669;DHT22;59898;52.786;6.892;2023-05-29T17:32:57;17.90;90.60
52669;DHT22;59898;52.786;6.892;2023-05-29T17:36:17;17.80;90.80
52669;DHT22;59898;52.786;6.892;2023-05-29T17:39:38;17.70;91.00
52669;DHT22;59898;52.786;6.892;2023-05-29T17:42:58;17.60;91.20
52669;DHT22;59898;52.786;6.892;2023-05-29T17:46:19;17.60;91.40
52669;DHT22;59898;52.786;6.892;2023-05-29T17:49:40;17.50;91.50
52669;DHT22;59898;52.786;6.892;2023-05-29T17:53:00;17.50;91.60
52669;DHT22;59898;52.786;6.892;2023-05-29T17:56:21;17.50;91.70
52669;DHT22;59898;52.786;6.892;2023-05-29T17:59:43;17.40;91.70
52669;DHT22;59898;52.786;6.892;2023-05-29T18:03:04;17.40;91.70
52669;DHT22;59898;52.786;6.892;2023-05-29T18:06:25;17.20;91.80
52669;DHT22;59898;52.786;6.892;2023-05-29T18:09:46;17.20;91.80
52669;DHT22;59898;52.786;6.892;2023-05-29T18:13:07;17.10;91.70
52669;DHT22;59898;52.786;6.892;2023-05-29T18:16:34;17.10;91.60
52669;DHT22;59898;52.786;6.892;2023-05-29T18:19:55;17.10;91.70
52669;DHT22;59898;52.786;6.892;2023-05-29T18:23:16;17.00;91.80
52669;DHT22;59898;52.786;6.892;2023-05-29T18:26:37;16.90;91.90
52669;DHT22;59898;52.786;6.892;2023-05-29T18:29:58;16.90;92.10
52669;DHT22;59898;52.786;6.892;2023-05-29T18:33:20;16.90;92.20
52669;DHT22;59898;52.786;6.892;2023-05-29T18:36:40;16.80;92.20
52669;DHT22;59898;52.786;6.892;2023-05-29T18:40:01;16.70;92.20
52669;DHT22;59898;52.786;6.892;2023-05-29T18:43:21;16.70;92.30
52669;DHT22;59898;52.786;6.892;2023-05-29T18:46:42;16.60;92.40
52669;DHT22;59898;52.786;6.892;2023-05-29T18:50:03;16.50;92.50
52669;DHT22;59898;52.786;6.892;2023-05-29T18:53:23;16.50;92.60
52669;DHT22;59898;52.786;6.892;2023-05-29T18:56:44;16.40;92.70
52669;DHT22;59898;52.786;6.892;2023-05-29T19:00:06;16.30;92.80
52669;DHT22;59898;52.786;6.892;2023-05-29T19:03:27;16.30;92.90
52669;DHT22;59898;52.786;6.892;2023-05-29T19:06:47;16.30;93.00
52669;DHT22;59898;52.786;6.892;2023-05-29T19:10:09;16.20;93.20
52669;DHT22;59898;52.786;6.892;2023-05-29T19:13:30;16.10;93.30
52669;DHT22;59898;52.786;6.892;2023-05-29T19:16:52;16.00;93.40
52669;DHT22;59898;52.786;6.892;2023-05-29T19:20:13;15.90;93.70
52669;DHT22;59898;52.786;6.892;2023-05-29T19:23:34;15.80;93.90
52669;DHT22;59898;52.786;6.892;2023-05-29T19:26:54;15.70;94.10
52669;DHT22;59898;52.786;6.892;2023-05-29T19:30:15;15.60;94.30
52669;DHT22;59898;52.786;6.892;2023-05-29T19:33:36;15.50;94.60
52669;DHT22;59898;52.786;6.892;2023-05-29T19:36:56;15.40;94.80
52669;DHT22;59898;52.786;6.892;2023-05-29T19:40:17;15.30;95.00
52669;DHT22;59898;52.786;6.892;2023-05-29T19:43:37;15.20;95.20
52669;DHT22;59898;52.786;6.892;2023-05-29T19:46:58;15.20;95.40
52669;DHT22;59898;52.786;6.892;2023-05-29T19:50:19;15.10;95.60
52669;DHT22;59898;52.786;6.892;2023-05-29T19:53:40;15.10;95.70
52669;DHT22;59898;52.786;6.892;2023-05-29T19:57:04;15.00;95.90
52669;DHT22;59898;52.786;6.892;2023-05-29T20:00:26;14.90;96.00
52669;DHT22;59898;52.786;6.892;2023-05-29T20:03:46;14.80;96.20
52669;DHT22;59898;52.786;6.892;2023-05-29T20:07:07;14.80;96.30
52669;DHT22;59898;52.786;6.892;2023-05-29T20:10:27;14.70;96.40
52669;DHT22;59898;52.786;6.892;2023-05-29T20:13:49;14.60;96.50
52669;DHT22;59898;52.786;6.892;2023-05-29T20:17:10;14.50;96.70
52669;DHT22;59898;52.786;6.892;2023-05-29T20:20:31;14.50;96.80
52669;DHT22;59898;52.786;6.892;2023-05-29T20:23:51;14.50;96.90
52669;DHT22;59898;52.786;6.892;2023-05-29T20:27:12;14.50;96.90
52669;DHT22;59898;52.786;6.892;2023-05-29T20:30:32;14.50;97.10
52669;DHT22;59898;52.786;6.892;2023-05-29T20:33:53;14.50;97.20
52669;DHT22;59898;52.786;6.892;2023-05-29T20:37:14;14.50;97.30
52669;DHT22;59898;52.786;6.892;2023-05-29T20:40:34;14.40;97.40
52669;DHT22;59898;52.786;6.892;2023-05-29T20:43:56;14.40;97.40
52669;DHT22;59898;52.786;6.892;2023-05-29T20:47:19;14.30;97.50
52669;DHT22;59898;52.786;6.892;2023-05-29T20:50:41;14.20;97.60
52669;DHT22;59898;52.786;6.892;2023-05-29T20:54:02;14.20;97.80
52669;DHT22;59898;52.786;6.892;2023-05-29T20:57:25;14.10;97.90
52669;DHT22;59898;52.786;6.892;2023-05-29T21:00:46;14.10;98.00
52669;DHT22;59898;52.786;6.892;2023-05-29T21:04:07;14.30;97.70
52669;DHT22;59898;52.786;6.892;2023-05-29T21:07:28;14.00;97.90
52669;DHT22;59898;52.786;6.892;2023-05-29T21:10:56;14.00;98.30
52669;DHT22;59898;52.786;6.892;2023-05-29T21:14:16;14.00;98.10
52669;DHT22;59898;52.786;6.892;2023-05-29T21:17:37;13.90;98.30
52669;DHT22;59898;52.786;6.892;2023-05-29T21:20:57;13.90;98.40
52669;DHT22;59898;52.786;6.892;2023-05-29T21:24:18;13.80;98.50
52669;DHT22;59898;52.786;6.892;2023-05-29T21:27:39;13.80;98.60